createdAt,value
2022-08-05T00:02:11.551Z,22.47
2022-08-05T00:04:40.287Z,22.49
2022-08-05T00:07:21.720Z,22.49
2022-08-05T00:09:54.585Z,22.46
2022-08-05T00:12:22.200Z,22.45
2022-08-05T00:14:51.672Z,22.44
2022-08-05T00:17:19.439Z,22.44
2022-08-05T00:20:02.239Z,22.43
2022-08-05T00:22:31.015Z,22.42
2022-08-05T00:24:58.457Z,22.38
2022-08-05T00:27:28.370Z,22.37
2022-08-05T00:30:03.384Z,22.37
2022-08-05T00:32:30.465Z,22.37
2022-08-05T00:35:06.881Z,22.38
2022-08-05T00:37:51.376Z,22.39
2022-08-05T00:40:28.485Z,22.39
2022-08-05T00:42:58.351Z,22.38
2022-08-05T00:45:37.918Z,22.35
2022-08-05T00:48:09.187Z,22.34
2022-08-05T00:50:38.064Z,22.35
2022-08-05T00:53:09.507Z,22.35
2022-08-05T00:55:52.780Z,22.34
2022-08-05T00:58:19.629Z,22.31
2022-08-05T01:00:46.750Z,22.28
2022-08-05T01:03:22.814Z,22.27
2022-08-05T01:05:54.680Z,22.24
2022-08-05T01:08:42.111Z,22.22
2022-08-05T01:11:22.074Z,22.22
2022-08-05T01:14:15.267Z,22.24
2022-08-05T01:17:00.436Z,22.23
2022-08-05T01:20:00.976Z,22.23
2022-08-05T01:22:32.434Z,22.24
2022-08-05T01:25:39.890Z,22.22
2022-08-05T01:28:27.054Z,22.21
2022-08-05T01:31:08.857Z,22.21
2022-08-05T01:33:49.260Z,22.22
2022-08-05T01:36:21.088Z,22.24
2022-08-05T01:38:55.801Z,22.25
2022-08-05T01:41:25.696Z,22.26
2022-08-05T01:43:52.994Z,22.26
2022-08-05T01:46:42.810Z,22.27
2022-08-05T01:49:23.181Z,22.26
2022-08-05T01:51:55.277Z,22.22
2022-08-05T01:54:25.733Z,22.19
2022-08-05T01:58:09.432Z,22.18
2022-08-05T01:59:41.481Z,22.15
2022-08-05T02:02:14.598Z,22.13
2022-08-05T02:04:43.647Z,22.13
2022-08-05T02:07:22.082Z,22.13
2022-08-05T02:09:51.000Z,22.14
2022-08-05T02:12:38.790Z,22.12
2022-08-05T02:15:17.329Z,22.10
2022-08-05T02:18:27.730Z,22.10
2022-08-05T02:20:50.590Z,22.10
2022-08-05T02:23:18.706Z,22.09
2022-08-05T02:25:49.267Z,22.07
2022-08-05T02:28:29.195Z,22.04
2022-08-05T02:31:14.708Z,22.04
2022-08-05T02:33:48.538Z,22.04
2022-08-05T02:36:17.170Z,22.03
2022-08-05T02:38:53.447Z,22.03
2022-08-05T02:41:22.936Z,22.04
2022-08-05T02:44:05.932Z,22.04
2022-08-05T02:46:53.323Z,22.04
2022-08-05T02:49:24.355Z,22.04
2022-08-05T02:52:03.917Z,22.03
2022-08-05T02:54:34.927Z,22.03
2022-08-05T02:57:10.311Z,22.04
2022-08-05T02:59:54.513Z,22.04
2022-08-05T03:02:24.864Z,22.04
2022-08-05T03:04:55.168Z,22.04
2022-08-05T03:08:00.612Z,22.03
2022-08-05T03:10:10.164Z,21.98
2022-08-05T03:12:38.641Z,21.98
2022-08-05T03:15:09.329Z,21.98
2022-08-05T03:17:41.479Z,22.01
2022-08-05T03:20:10.399Z,22.06
2022-08-05T03:22:37.497Z,22.08
2022-08-05T03:25:33.175Z,22.09
2022-08-05T03:28:00.360Z,22.07
2022-08-05T03:30:33.751Z,22.09
2022-08-05T03:33:06.311Z,22.10
2022-08-05T03:35:40.981Z,22.14
2022-08-05T03:38:11.198Z,22.19
2022-08-05T03:40:47.209Z,22.24
2022-08-05T03:44:08.930Z,22.29
2022-08-05T03:46:03.488Z,22.34
2022-08-05T03:48:30.637Z,22.36
2022-08-05T03:52:48.982Z,22.37
2022-08-05T03:56:01.369Z,22.41
2022-08-05T03:56:51.691Z,22.46
2022-08-05T03:59:24.548Z,22.51
2022-08-05T04:01:52.359Z,22.57
2022-08-05T04:04:21.223Z,22.66
2022-08-05T04:06:51.102Z,22.73
2022-08-05T04:09:26.113Z,22.79
2022-08-05T04:11:56.876Z,22.85
2022-08-05T04:14:30.437Z,22.91
2022-08-05T04:16:59.713Z,22.98
2022-08-05T04:19:28.612Z,23.05
2022-08-05T04:22:08.896Z,23.12
2022-08-05T04:24:44.189Z,23.19
2022-08-05T04:27:13.521Z,23.26
2022-08-05T04:29:41.214Z,23.31
2022-08-05T04:32:08.647Z,23.39
2022-08-05T04:34:39.652Z,23.46
2022-08-05T04:37:11.423Z,23.52
2022-08-05T04:39:40.100Z,23.59
2022-08-05T04:42:07.537Z,23.70
2022-08-05T04:44:35.965Z,23.83
2022-08-05T04:47:08.975Z,23.89
2022-08-05T04:50:03.003Z,23.97
2022-08-05T04:52:27.421Z,24.11
2022-08-05T04:54:57.364Z,24.24
2022-08-05T04:57:28.693Z,24.34
2022-08-05T04:59:58.435Z,24.43
2022-08-05T05:02:41.997Z,24.53
2022-08-05T05:05:16.681Z,24.66
2022-08-05T05:08:01.082Z,24.82
2022-08-05T05:10:55.779Z,24.96
2022-08-05T05:13:24.024Z,25.09
2022-08-05T05:15:57.319Z,25.26
2022-08-05T05:18:33.079Z,25.44
2022-08-05T05:21:03.072Z,25.61
2022-08-05T05:24:02.189Z,25.73
2022-08-05T05:26:18.749Z,25.98
2022-08-05T05:28:45.693Z,25.97
2022-08-05T05:31:13.148Z,26.06
2022-08-05T05:33:59.696Z,26.14
2022-08-05T05:36:28.821Z,26.25
2022-08-05T05:38:57.493Z,26.39
2022-08-05T05:41:24.687Z,26.54
2022-08-05T05:43:58.410Z,26.70
2022-08-05T05:46:27.696Z,26.86
2022-08-05T05:48:55.054Z,27.04
2022-08-05T05:51:23.648Z,27.41
2022-08-05T05:53:57.671Z,27.49
2022-08-05T05:56:32.452Z,27.51
2022-08-05T05:59:03.163Z,27.54
2022-08-05T06:01:37.715Z,27.64
2022-08-05T06:04:12.188Z,27.79
2022-08-05T06:06:41.741Z,27.95
2022-08-05T06:09:09.148Z,28.13
2022-08-05T06:11:59.589Z,28.33
2022-08-05T06:14:30.974Z,28.59
2022-08-05T06:16:58.580Z,28.83
2022-08-05T06:19:34.844Z,29.00
2022-08-05T06:22:03.973Z,29.22
2022-08-05T06:24:32.195Z,29.42
2022-08-05T06:26:59.768Z,29.55
2022-08-05T06:29:48.145Z,29.64
2022-08-05T06:32:24.921Z,29.80
2022-08-05T06:34:58.378Z,29.87
2022-08-05T06:37:57.286Z,29.85
2022-08-05T06:40:18.399Z,29.84
2022-08-05T06:42:51.631Z,29.88
2022-08-05T06:45:21.244Z,29.98
2022-08-05T06:48:36.147Z,30.21
2022-08-05T06:50:54.415Z,30.63
2022-08-05T06:53:27.617Z,31.04
2022-08-05T06:56:00.109Z,31.14
2022-08-05T06:58:29.959Z,31.38
2022-08-05T07:01:03.607Z,31.62
2022-08-05T07:03:32.522Z,31.81
2022-08-05T07:06:06.293Z,32.02
2022-08-05T07:08:47.598Z,32.32
2022-08-05T07:11:22.109Z,32.53
2022-08-05T07:14:15.504Z,32.72
2022-08-05T07:17:58.330Z,32.96
2022-08-05T07:22:28.646Z,33.34
2022-08-05T07:25:22.064Z,33.44
2022-08-05T07:27:58.606Z,33.72
2022-08-05T07:30:32.607Z,33.75
2022-08-05T07:33:09.491Z,33.67
2022-08-05T07:36:01.876Z,33.64
2022-08-05T07:38:34.420Z,33.68
2022-08-05T07:42:07.063Z,33.81
2022-08-05T07:43:56.548Z,34.05
2022-08-05T07:46:26.206Z,33.99
2022-08-05T07:49:03.591Z,33.90
2022-08-05T07:51:36.723Z,33.90
2022-08-05T07:54:09.702Z,33.87
2022-08-05T07:57:00.202Z,33.89
2022-08-05T07:59:38.244Z,33.92
2022-08-05T08:02:15.492Z,34.13
2022-08-05T08:05:53.680Z,34.39
2022-08-05T13:49:46.462Z,37.24
2022-08-05T13:52:29.147Z,37.00
2022-08-05T13:54:57.289Z,36.97
2022-08-05T13:57:48.586Z,37.10
2022-08-05T14:00:15.141Z,37.25
2022-08-05T14:02:44.585Z,37.29
2022-08-05T14:05:15.383Z,37.20
2022-08-05T14:07:59.965Z,37.25
2022-08-05T14:10:33.236Z,37.39
2022-08-05T14:13:00.280Z,37.48
2022-08-05T14:16:07.266Z,37.47
2022-08-05T14:18:18.372Z,37.46
2022-08-05T14:20:54.362Z,37.44
2022-08-05T14:23:25.603Z,37.32
2022-08-05T14:25:58.246Z,37.15
2022-08-05T14:28:30.348Z,36.97
2022-08-05T14:30:58.356Z,36.75
2022-08-05T14:33:25.613Z,36.65
2022-08-05T14:35:54.530Z,36.62
2022-08-05T14:38:31.663Z,36.58
2022-08-05T14:41:05.845Z,36.47
2022-08-05T14:43:59.392Z,36.43
2022-08-05T14:46:28.031Z,36.49
2022-08-05T14:49:06.569Z,36.32
2022-08-05T14:51:42.588Z,36.28
2022-08-05T14:54:28.048Z,36.24
2022-08-05T14:56:58.921Z,36.32
2022-08-05T14:59:29.640Z,36.15
2022-08-05T15:02:03.496Z,35.95
2022-08-05T15:04:43.404Z,35.70
2022-08-05T15:07:12.028Z,35.45
2022-08-05T15:10:01.598Z,35.25
2022-08-05T15:12:45.671Z,35.06
2022-08-05T15:15:17.404Z,34.83
2022-08-05T15:18:05.849Z,34.69
2022-08-05T15:20:33.071Z,34.55
2022-08-05T15:23:07.472Z,34.45
2022-08-05T15:25:41.062Z,34.36
2022-08-05T15:28:20.250Z,34.28
2022-08-05T15:30:53.066Z,34.30
2022-08-05T15:34:05.170Z,34.31
2022-08-05T15:36:16.874Z,34.28
2022-08-05T15:38:44.946Z,34.23
2022-08-05T15:41:23.102Z,34.17
2022-08-05T15:43:52.366Z,34.11
2022-08-05T15:46:24.104Z,33.99
2022-08-05T15:48:58.664Z,33.87
2022-08-05T15:52:13.742Z,33.83
2022-08-05T15:54:15.770Z,33.72
2022-08-05T15:56:43.683Z,33.55
2022-08-05T15:59:21.774Z,33.42
2022-08-05T16:01:52.247Z,33.25
2022-08-05T16:04:25.353Z,33.11
2022-08-05T16:06:56.166Z,33.02
2022-08-05T16:09:24.446Z,32.94
2022-08-05T16:11:53.200Z,32.83
2022-08-05T16:14:24.710Z,32.70
2022-08-05T16:16:51.760Z,32.49
2022-08-05T16:20:02.932Z,32.38
2022-08-05T16:22:06.692Z,32.27
2022-08-05T16:24:41.548Z,32.16
2022-08-05T16:27:18.871Z,32.02
2022-08-05T16:29:50.151Z,31.91
2022-08-05T16:32:23.226Z,31.86
2022-08-05T16:34:55.511Z,31.78
2022-08-05T16:38:02.549Z,31.68
2022-08-05T16:40:25.016Z,31.57
2022-08-05T16:42:56.281Z,31.47
2022-08-05T16:46:03.965Z,31.38
2022-08-05T16:48:10.527Z,31.29
2022-08-05T16:50:37.867Z,31.21
2022-08-05T16:53:11.923Z,31.13
2022-08-05T16:55:46.951Z,31.04
2022-08-05T16:58:14.595Z,30.94
2022-08-05T17:00:48.177Z,30.86
2022-08-05T17:03:20.538Z,30.77
2022-08-05T17:05:53.603Z,30.67
2022-08-05T17:08:36.072Z,30.59
2022-08-05T17:11:12.710Z,30.50
2022-08-05T17:13:45.651Z,30.40
2022-08-05T17:16:33.145Z,30.32
2022-08-05T17:19:00.812Z,30.22
2022-08-05T17:21:35.735Z,30.13
2022-08-05T17:24:28.183Z,30.05
2022-08-05T17:26:57.685Z,29.94
2022-08-05T17:29:33.180Z,29.86
2022-08-05T17:32:17.193Z,29.76
2022-08-05T17:34:49.105Z,29.71
2022-08-05T17:37:40.865Z,29.63
2022-08-05T17:40:10.100Z,29.53
2022-08-05T17:42:43.039Z,29.46
2022-08-05T17:45:20.020Z,29.36
2022-08-05T17:47:53.394Z,29.23
2022-08-05T17:50:28.934Z,29.18
2022-08-05T17:53:02.961Z,29.09
2022-08-05T17:55:37.548Z,29.01
2022-08-05T17:58:12.449Z,28.92
2022-08-05T18:00:45.145Z,28.84
2022-08-05T18:06:11.512Z,28.63
2022-08-05T18:08:44.836Z,28.55
2022-08-05T18:11:23.616Z,28.49
2022-08-05T18:13:53.467Z,28.45
2022-08-05T18:16:21.137Z,28.40
2022-08-05T18:18:50.157Z,28.34
2022-08-05T18:21:19.900Z,28.29
2022-08-05T18:23:53.510Z,28.21
2022-08-05T18:26:27.739Z,28.14
2022-08-05T18:28:57.488Z,28.05
2022-08-05T18:31:33.856Z,27.99
2022-08-05T18:34:06.220Z,28.00
2022-08-05T18:36:35.529Z,27.96
2022-08-05T18:39:03.787Z,27.89
2022-08-05T18:41:55.808Z,27.86
2022-08-05T18:44:33.311Z,27.79
2022-08-05T18:47:04.301Z,27.75
2022-08-05T18:49:57.813Z,27.70
2022-08-05T18:52:33.559Z,27.66
2022-08-05T18:55:05.042Z,27.60
2022-08-05T18:57:49.964Z,27.54
2022-08-05T19:00:20.374Z,27.50
2022-08-05T19:02:48.161Z,27.44
2022-08-05T19:06:05.549Z,27.40
2022-08-05T19:08:03.026Z,27.35
2022-08-05T19:10:30.699Z,27.31
2022-08-05T19:12:58.659Z,27.26
2022-08-05T19:15:59.020Z,27.22
2022-08-05T19:18:22.461Z,27.18
2022-08-05T19:20:52.400Z,27.13
2022-08-05T19:24:03.671Z,27.07
2022-08-05T19:26:09.270Z,27.03
2022-08-05T19:28:42.234Z,26.99
2022-08-05T19:31:13.262Z,26.94
2022-08-05T19:33:55.651Z,26.95
2022-08-05T19:36:25.358Z,26.92
2022-08-05T19:39:00.537Z,26.82
2022-08-05T19:42:05.341Z,26.76
2022-08-05T19:44:16.719Z,26.71
2022-08-05T19:46:45.500Z,26.65
2022-08-05T19:49:17.240Z,26.59
2022-08-05T19:52:05.860Z,26.54
2022-08-05T19:54:34.307Z,26.50
2022-08-05T19:57:06.632Z,26.46
2022-08-05T19:59:56.036Z,26.37
2022-08-05T20:02:23.570Z,26.30
2022-08-05T20:04:54.048Z,26.26
2022-08-05T20:07:45.724Z,26.21
2022-08-05T20:10:13.507Z,26.09
2022-08-05T20:12:48.012Z,26.00
2022-08-05T20:15:48.971Z,25.95
2022-08-05T20:18:09.737Z,25.89
2022-08-05T20:20:37.071Z,25.84
2022-08-05T20:23:05.654Z,25.79
2022-08-05T20:25:39.736Z,25.74
2022-08-05T20:28:08.104Z,25.68
2022-08-05T20:30:40.826Z,25.64
2022-08-05T20:33:09.002Z,25.61
2022-08-05T20:35:40.282Z,25.58
2022-08-05T20:38:20.010Z,25.55
2022-08-05T20:40:53.804Z,25.51
2022-08-05T20:43:33.403Z,25.47
2022-08-05T20:46:10.537Z,25.40
2022-08-05T20:48:45.371Z,25.27
2022-08-05T20:51:18.051Z,25.23
2022-08-05T20:53:56.772Z,25.24
2022-08-05T20:56:29.695Z,25.23
2022-08-05T20:59:00.156Z,25.21
2022-08-05T21:01:39.035Z,25.18
2022-08-05T21:04:10.847Z,25.15
2022-08-05T21:06:45.132Z,25.11
2022-08-05T21:09:14.438Z,25.06
2022-08-05T21:12:08.990Z,25.02
2022-08-05T21:14:35.300Z,24.89
2022-08-05T21:17:06.106Z,24.90
2022-08-05T21:19:46.442Z,24.92
2022-08-05T21:22:18.536Z,24.89
2022-08-05T21:24:51.577Z,24.78
2022-08-05T21:27:25.027Z,24.73
2022-08-05T21:29:55.818Z,24.68
2022-08-05T21:32:27.449Z,24.63
2022-08-05T21:35:09.032Z,24.58
2022-08-05T21:37:43.709Z,24.55
2022-08-05T21:40:14.630Z,24.54
2022-08-05T21:42:45.302Z,24.53
2022-08-05T21:45:24.979Z,24.51
2022-08-05T21:48:06.357Z,24.51
2022-08-05T21:50:33.657Z,24.48
2022-08-05T21:53:04.585Z,24.46
2022-08-05T21:56:01.576Z,24.44
2022-08-05T21:58:24.860Z,24.43
2022-08-05T22:00:59.637Z,24.41
2022-08-05T22:03:52.067Z,24.39
2022-08-05T22:06:22.449Z,24.39
2022-08-05T22:08:52.199Z,24.36
2022-08-05T22:11:35.170Z,24.34
2022-08-05T22:14:06.569Z,24.29
2022-08-05T22:16:53.024Z,24.25
2022-08-05T22:20:03.522Z,24.22
2022-08-05T22:22:10.969Z,24.21
2022-08-05T22:24:57.884Z,24.20
2022-08-05T22:28:08.539Z,24.19
2022-08-05T22:30:32.450Z,24.17
2022-08-05T22:33:04.367Z,24.14
2022-08-05T22:35:48.606Z,24.12
2022-08-05T22:38:19.722Z,24.15
2022-08-05T22:40:49.642Z,24.13
2022-08-05T22:43:37.032Z,24.07
2022-08-05T22:46:13.501Z,24.07
2022-08-05T22:48:50.610Z,24.04
2022-08-05T22:51:22.898Z,24.00
2022-08-05T22:53:57.029Z,23.96
2022-08-05T22:56:30.543Z,23.94
2022-08-05T22:59:04.142Z,23.92
2022-08-05T23:02:04.857Z,23.90
2022-08-05T23:04:34.043Z,23.87
2022-08-05T23:07:01.100Z,23.83
2022-08-05T23:09:57.251Z,23.79
2022-08-05T23:12:18.007Z,23.75
2022-08-05T23:14:45.074Z,23.72
2022-08-05T23:17:34.105Z,23.71
2022-08-05T23:20:05.693Z,23.68
2022-08-05T23:22:37.662Z,23.66
2022-08-05T23:25:05.531Z,23.62
2022-08-05T23:27:42.535Z,23.61
2022-08-05T23:30:21.547Z,23.59
2022-08-05T23:32:54.342Z,23.55
2022-08-05T23:35:21.387Z,23.50
2022-08-05T23:37:48.544Z,23.45
2022-08-05T23:40:15.557Z,23.42
2022-08-05T23:42:47.406Z,23.41
2022-08-05T23:45:20.659Z,23.40
2022-08-05T23:47:53.616Z,23.39
2022-08-05T23:50:26.605Z,23.38
2022-08-05T23:52:55.739Z,23.36
2022-08-05T23:55:24.657Z,23.38
2022-08-05T23:57:58.134Z,23.39
